createdAt,value
2022-08-17T00:00:44.062Z,99010.91
2022-08-17T00:03:24.158Z,99017.34
2022-08-17T00:05:55.845Z,99022.25
2022-08-17T00:08:30.490Z,99026.72
2022-08-17T00:11:01.664Z,99022.03
2022-08-17T00:13:35.154Z,99029.44
2022-08-17T00:16:10.302Z,99032.13
2022-08-17T00:19:02.080Z,99030.38
2022-08-17T00:22:29.917Z,99022.97
2022-08-17T00:24:20.695Z,99032.94
2022-08-17T00:26:50.370Z,99028.19
2022-08-17T00:29:20.328Z,99024.75
2022-08-17T00:31:52.618Z,99026.75
2022-08-17T00:34:22.268Z,99031.88
2022-08-17T00:36:51.795Z,99028.94
2022-08-17T00:39:21.295Z,99037.34
2022-08-17T00:41:50.830Z,99037.31
2022-08-17T00:44:20.378Z,99030.34
2022-08-17T00:46:52.487Z,99044.41
2022-08-17T00:49:23.715Z,99021.63
2022-08-17T00:51:58.827Z,99029.81
2022-08-17T00:54:33.910Z,99035.44
2022-08-17T00:57:16.241Z,99024.69
2022-08-17T00:59:56.051Z,99024.19
2022-08-17T01:02:42.296Z,99022.03
2022-08-17T01:05:18.499Z,99023.03
2022-08-17T01:07:50.889Z,99023.72
2022-08-17T01:10:59.497Z,99015.09
2022-08-17T01:13:15.495Z,99017.41
2022-08-17T01:15:50.591Z,99027.38
2022-08-17T01:18:22.990Z,99018.09
2022-08-17T01:20:54.607Z,99027.66
2022-08-17T01:23:28.914Z,99015.59
2022-08-17T01:26:01.870Z,99018.00
2022-08-17T01:28:53.902Z,99018.03
2022-08-17T01:31:23.833Z,99021.47
2022-08-17T01:33:53.386Z,99014.84
2022-08-17T01:36:23.230Z,99021.91
2022-08-17T01:38:55.344Z,99019.59
2022-08-17T01:41:26.962Z,99017.22
2022-08-17T01:44:01.684Z,99023.38
2022-08-17T01:46:36.108Z,99030.13
2022-08-17T01:49:09.301Z,99033.03
2022-08-17T01:51:38.941Z,99019.25
2022-08-17T01:54:14.115Z,99017.56
2022-08-17T01:56:47.236Z,99019.13
2022-08-17T01:59:18.717Z,99018.97
2022-08-17T02:01:49.021Z,99021.63
2022-08-17T02:04:18.929Z,99008.81
2022-08-17T02:06:53.265Z,99016.78
2022-08-17T02:09:29.523Z,99018.78
2022-08-17T02:12:37.383Z,99014.81
2022-08-17T02:14:53.965Z,99026.72
2022-08-17T02:17:23.492Z,99019.25
2022-08-17T02:19:53.019Z,99029.81
2022-08-17T02:22:22.614Z,99024.00
2022-08-17T02:25:01.076Z,99026.41
2022-08-17T02:27:32.038Z,99026.06
2022-08-17T02:30:01.555Z,99024.72
2022-08-17T02:32:31.114Z,99012.34
2022-08-17T02:35:01.408Z,99021.63
2022-08-17T02:37:32.331Z,99014.25
2022-08-17T02:40:06.357Z,99016.38
2022-08-17T02:42:39.860Z,99003.25
2022-08-17T02:45:14.137Z,99011.91
2022-08-17T02:47:44.626Z,99007.19
2022-08-17T02:50:17.496Z,99004.88
2022-08-17T02:53:01.384Z,99007.19
2022-08-17T02:55:41.731Z,98998.34
2022-08-17T02:58:13.598Z,98998.91
2022-08-17T03:00:47.885Z,98998.75
2022-08-17T03:03:20.104Z,99007.50
2022-08-17T03:05:53.191Z,99001.06
2022-08-17T03:08:23.451Z,98997.72
2022-08-17T03:10:56.013Z,98992.34
2022-08-17T03:13:26.359Z,98994.53
2022-08-17T03:15:56.001Z,98987.81
2022-08-17T03:18:26.370Z,98991.44
2022-08-17T03:20:57.910Z,98992.22
2022-08-17T03:23:27.892Z,98989.63
2022-08-17T03:26:02.870Z,98985.47
2022-08-17T03:28:32.885Z,98990.53
2022-08-17T03:31:03.087Z,98994.72
2022-08-17T03:33:33.041Z,99002.31
2022-08-17T03:36:02.752Z,99004.41
2022-08-17T03:38:38.897Z,99000.03
2022-08-17T03:41:11.820Z,99002.19
2022-08-17T03:43:41.322Z,99006.59
2022-08-17T03:46:34.359Z,99003.72
2022-08-17T03:49:18.295Z,99007.09
2022-08-17T03:52:00.429Z,99003.06
2022-08-17T03:54:42.598Z,98997.25
2022-08-17T03:57:15.087Z,98999.25
2022-08-17T03:59:45.310Z,99005.28
2022-08-17T04:02:20.069Z,98994.28
2022-08-17T04:04:50.969Z,98996.09
2022-08-17T04:07:21.674Z,98995.78
2022-08-17T04:09:51.301Z,99002.13
2022-08-17T04:12:30.796Z,98996.47
2022-08-17T04:15:01.033Z,99002.31
2022-08-17T04:17:31.947Z,99004.22
2022-08-17T04:20:01.479Z,99018.97
2022-08-17T04:22:34.231Z,99009.41
2022-08-17T04:25:09.308Z,99014.13
2022-08-17T04:27:41.461Z,99006.69
2022-08-17T04:30:13.025Z,99006.47
2022-08-17T04:33:03.713Z,99007.81
2022-08-17T04:35:37.968Z,99004.94
2022-08-17T04:38:08.070Z,99008.06
2022-08-17T04:40:50.515Z,99013.50
2022-08-17T04:43:25.357Z,99013.50
2022-08-17T04:45:57.311Z,99010.47
2022-08-17T04:48:35.597Z,99012.72
2022-08-17T04:51:09.839Z,99005.34
2022-08-17T04:53:40.621Z,99008.84
2022-08-17T04:56:16.663Z,99011.78
2022-08-17T04:58:52.735Z,99013.84
2022-08-17T05:01:24.701Z,99027.44
2022-08-17T05:03:56.262Z,99025.34
2022-08-17T05:06:26.322Z,99032.06
2022-08-17T05:08:56.613Z,99027.66
2022-08-17T05:11:28.211Z,99043.91
2022-08-17T05:14:01.696Z,99023.78
2022-08-17T05:16:32.129Z,99036.97
2022-08-17T05:19:02.719Z,99041.25
2022-08-17T05:21:32.924Z,99034.63
2022-08-17T05:24:07.127Z,99033.88
2022-08-17T05:26:53.278Z,99033.88
2022-08-17T05:29:35.235Z,99053.53
2022-08-17T05:32:38.088Z,99047.94
2022-08-17T05:35:01.743Z,99042.25
2022-08-17T05:37:31.266Z,99043.31
2022-08-17T05:40:00.871Z,99050.13
2022-08-17T05:42:30.466Z,99046.72
2022-08-17T05:45:02.963Z,99043.78
2022-08-17T05:47:33.261Z,99041.16
2022-08-17T05:50:09.827Z,99046.72
2022-08-17T05:52:48.582Z,99042.38
2022-08-17T05:55:26.475Z,99050.16
2022-08-17T05:58:08.301Z,99046.13
2022-08-17T06:00:54.164Z,99051.38
2022-08-17T06:03:39.111Z,99047.81
2022-08-17T06:06:35.814Z,99052.22
2022-08-17T06:09:14.258Z,99049.84
2022-08-17T06:11:53.447Z,99056.63
2022-08-17T06:14:38.608Z,99052.97
2022-08-17T06:17:22.013Z,99058.75
2022-08-17T06:19:55.843Z,99056.03
2022-08-17T06:22:34.134Z,99051.28
2022-08-17T06:25:09.921Z,99050.75
2022-08-17T06:27:43.952Z,99046.03
2022-08-17T06:30:16.856Z,99055.88
2022-08-17T06:32:52.690Z,99048.16
2022-08-17T06:35:31.797Z,99044.56
2022-08-17T06:38:09.492Z,99056.31
2022-08-17T06:41:12.989Z,99049.69
2022-08-17T06:44:03.868Z,99046.91
2022-08-17T06:46:38.434Z,99053.13
2022-08-17T06:49:25.965Z,99050.50
2022-08-17T06:52:03.553Z,99051.47
2022-08-17T06:54:41.917Z,99045.41
2022-08-17T06:57:18.846Z,99051.88
2022-08-17T06:59:55.805Z,99048.66
2022-08-17T07:02:52.884Z,99039.34
2022-08-17T07:05:29.430Z,99044.16
2022-08-17T07:08:05.807Z,99053.13
2022-08-17T07:10:42.690Z,99051.47
2022-08-17T07:13:25.472Z,99047.00
2022-08-17T07:16:01.143Z,99049.22
2022-08-17T07:18:33.209Z,99051.97
2022-08-17T07:21:18.028Z,99047.47
2022-08-17T07:24:03.358Z,99056.78
2022-08-17T07:26:32.927Z,99046.22
2022-08-17T07:29:03.357Z,99039.25
2022-08-17T07:31:33.945Z,99044.59
2022-08-17T07:34:08.793Z,99059.28
2022-08-17T07:36:42.080Z,99060.44
2022-08-17T07:39:12.854Z,99056.09
2022-08-17T07:41:53.151Z,99052.56
2022-08-17T07:44:28.161Z,99047.28
2022-08-17T07:47:11.442Z,99053.38
2022-08-17T07:49:44.704Z,99049.00
2022-08-17T07:52:51.366Z,99051.97
2022-08-17T07:55:40.529Z,99052.06
2022-08-17T07:58:10.675Z,99046.78
2022-08-17T08:00:40.233Z,99051.63
2022-08-17T08:03:27.328Z,99058.78
2022-08-17T08:06:01.346Z,99054.09
2022-08-17T08:08:37.517Z,99061.53
2022-08-17T08:11:12.126Z,99053.53
2022-08-17T08:13:45.657Z,99058.75
2022-08-17T08:16:24.415Z,99064.91
2022-08-17T08:18:57.820Z,99065.69
2022-08-17T08:21:38.085Z,99070.09
2022-08-17T08:24:31.085Z,99066.91
2022-08-17T08:27:14.108Z,99073.78
2022-08-17T08:29:53.975Z,99073.72
2022-08-17T08:32:38.353Z,99075.63
2022-08-17T08:35:13.091Z,99079.69
2022-08-17T08:37:50.165Z,99072.91
2022-08-17T08:40:38.399Z,99071.41
2022-08-17T08:43:18.923Z,99074.94
2022-08-17T08:45:56.735Z,99079.38
2022-08-17T08:48:55.794Z,99084.00
2022-08-17T08:51:39.388Z,99087.34
2022-08-17T08:54:17.190Z,99073.13
2022-08-17T08:57:24.495Z,99075.16
2022-08-17T09:00:06.333Z,99071.81
2022-08-17T09:03:13.443Z,99072.75
2022-08-17T09:06:02.895Z,99077.53
2022-08-17T09:08:39.565Z,99076.03
2022-08-17T09:11:14.162Z,99070.28
2022-08-17T09:13:55.500Z,99070.69
2022-08-17T09:16:30.447Z,99065.44
2022-08-17T09:19:10.846Z,99068.06
2022-08-17T09:21:48.735Z,99067.09
2022-08-17T09:24:28.340Z,99056.88
2022-08-17T09:27:03.831Z,99060.88
2022-08-17T09:29:35.892Z,99053.22
2022-08-17T09:32:12.722Z,99056.09
2022-08-17T09:34:52.718Z,99051.38
2022-08-17T09:37:28.474Z,99042.28
2022-08-17T09:40:11.491Z,99049.53
2022-08-17T09:42:50.144Z,99049.97
2022-08-17T09:45:30.588Z,99043.97
2022-08-17T09:48:06.449Z,99052.03
2022-08-17T09:50:57.378Z,99038.63
2022-08-17T09:53:36.201Z,99045.44
2022-08-17T09:56:24.074Z,99044.66
2022-08-17T09:59:21.927Z,99051.41
2022-08-17T10:01:58.226Z,99041.25
2022-08-17T10:04:41.377Z,99037.19
2022-08-17T10:07:20.079Z,99039.84
2022-08-17T10:10:00.428Z,99034.19
2022-08-17T10:12:46.410Z,99053.63
2022-08-17T10:15:25.139Z,99036.72
2022-08-17T10:18:21.424Z,99031.03
2022-08-17T10:21:18.491Z,99030.69
2022-08-17T10:24:08.057Z,99033.88
2022-08-17T10:26:56.293Z,99021.31
2022-08-17T10:29:32.702Z,99030.19
2022-08-17T10:32:28.073Z,99032.28
2022-08-17T10:35:28.067Z,99023.72
2022-08-17T10:38:24.496Z,99029.28
2022-08-17T10:41:03.404Z,99020.09
2022-08-17T10:43:41.864Z,99008.34
2022-08-17T10:46:31.310Z,99013.03
2022-08-17T10:49:25.385Z,99012.44
2022-08-17T10:51:57.030Z,99011.59
2022-08-17T10:54:48.409Z,99011.50
2022-08-17T10:57:40.070Z,99019.06
2022-08-17T11:00:15.893Z,99017.47
2022-08-17T11:02:50.507Z,99015.56
2022-08-17T11:05:44.389Z,99017.72
2022-08-17T11:08:36.182Z,99019.38
2022-08-17T11:11:36.122Z,99013.91
2022-08-17T11:14:28.256Z,99019.41
2022-08-17T11:17:19.064Z,99017.25
2022-08-17T11:20:21.374Z,99008.06
2022-08-17T11:23:10.184Z,99023.13
2022-08-17T11:25:43.810Z,99017.88
2022-08-17T11:28:19.395Z,99016.91
2022-08-17T11:30:53.752Z,99013.84
2022-08-17T11:33:56.100Z,98998.28
2022-08-17T11:36:36.905Z,99002.31
2022-08-17T11:39:19.265Z,98997.16
2022-08-17T11:41:56.766Z,98998.72
2022-08-17T11:44:42.678Z,99006.38
2022-08-17T11:47:30.600Z,98997.31
2022-08-17T11:50:27.969Z,98996.75
2022-08-17T11:52:58.020Z,98995.34
2022-08-17T11:56:04.754Z,98985.97
2022-08-17T11:58:41.888Z,98988.41
2022-08-17T12:01:16.249Z,98993.34
2022-08-17T12:03:55.919Z,98997.03
2022-08-17T12:06:44.014Z,98991.56
2022-08-17T12:09:19.850Z,98992.22
2022-08-17T12:12:12.182Z,98994.19
2022-08-17T12:15:09.631Z,98999.38
2022-08-17T12:17:40.577Z,98990.84
2022-08-17T12:20:18.027Z,98996.00
2022-08-17T12:22:56.419Z,98991.84
2022-08-17T12:25:34.167Z,98988.25
2022-08-17T12:28:07.178Z,98980.31
2022-08-17T12:30:38.871Z,98978.00
2022-08-17T12:33:25.314Z,98971.88
2022-08-17T12:36:05.460Z,98975.78
2022-08-17T12:38:37.212Z,98982.13
2022-08-17T12:41:23.419Z,98986.41
2022-08-17T12:44:02.274Z,98976.38
2022-08-17T12:46:36.018Z,98968.59
2022-08-17T12:49:18.177Z,98973.00
2022-08-17T12:51:50.745Z,98969.16
2022-08-17T12:54:31.442Z,98961.31
2022-08-17T12:57:07.259Z,98957.94
2022-08-17T12:59:37.055Z,98965.34
2022-08-17T13:02:07.100Z,98968.28
2022-08-17T13:04:37.588Z,98963.97
2022-08-17T13:07:09.786Z,98959.31
2022-08-17T13:09:40.524Z,98955.34
2022-08-17T13:12:10.991Z,98960.53
2022-08-17T13:14:40.615Z,98951.25
2022-08-17T13:17:13.612Z,98955.88
2022-08-17T13:19:52.227Z,98956.59
2022-08-17T13:22:26.375Z,98955.91
2022-08-17T13:24:58.812Z,98956.75
2022-08-17T13:27:31.445Z,98944.22
2022-08-17T13:30:05.635Z,98948.94
2022-08-17T13:32:43.744Z,98936.91
2022-08-17T13:35:39.018Z,98946.34
2022-08-17T13:38:15.605Z,98951.94
2022-08-17T13:40:53.326Z,98945.91
2022-08-17T13:43:45.081Z,98947.00
2022-08-17T13:46:21.486Z,98948.72
2022-08-17T13:49:01.912Z,98951.06
2022-08-17T13:51:37.569Z,98956.78
2022-08-17T13:54:25.156Z,98947.13
2022-08-17T13:57:00.500Z,98948.63
2022-08-17T13:59:53.092Z,98952.44
2022-08-17T14:02:28.628Z,98947.94
2022-08-17T14:05:00.606Z,98953.94
2022-08-17T14:07:36.895Z,98946.81
2022-08-17T14:10:14.360Z,98951.84
2022-08-17T14:12:46.532Z,98938.97
2022-08-17T14:15:18.086Z,98944.03
2022-08-17T14:17:49.081Z,98948.34
2022-08-17T14:20:21.970Z,98946.84
2022-08-17T14:22:53.987Z,98939.81
2022-08-17T14:25:29.428Z,98944.56
2022-08-17T14:27:59.437Z,98944.34
2022-08-17T14:30:30.917Z,98943.09
2022-08-17T14:33:02.237Z,98948.72
2022-08-17T14:35:32.171Z,98939.81
2022-08-17T14:38:02.197Z,98945.94
2022-08-17T14:40:36.970Z,98945.66
2022-08-17T14:43:06.555Z,98947.47
2022-08-17T14:45:36.117Z,98937.28
2022-08-17T14:48:07.711Z,98942.41
2022-08-17T14:50:38.433Z,98938.63
2022-08-17T14:53:09.680Z,98939.28
2022-08-17T14:55:45.768Z,98945.59
2022-08-17T14:58:16.765Z,98943.19
2022-08-17T15:00:46.299Z,98934.38
2022-08-17T15:03:15.818Z,98936.91
2022-08-17T15:05:46.478Z,98944.91
2022-08-17T15:08:17.946Z,98943.03
2022-08-17T15:10:53.339Z,98934.81
2022-08-17T15:13:26.844Z,98936.56
2022-08-17T15:15:56.569Z,98930.66
2022-08-17T15:18:26.502Z,98928.97
2022-08-17T15:20:56.082Z,98932.44
2022-08-17T15:23:28.301Z,98922.31
2022-08-17T15:26:00.444Z,98921.28
2022-08-17T15:28:30.233Z,98915.44
2022-08-17T15:30:59.863Z,98918.72
2022-08-17T15:33:31.871Z,98919.41
2022-08-17T15:36:04.990Z,98932.91
2022-08-17T15:38:39.289Z,98917.34
2022-08-17T15:41:15.409Z,98921.97
2022-08-17T15:43:45.780Z,98925.88
2022-08-17T15:46:18.893Z,98917.41
2022-08-17T15:48:52.041Z,98912.72
2022-08-17T15:51:24.335Z,98905.50
2022-08-17T15:53:56.280Z,98909.44
2022-08-17T15:56:29.214Z,98911.16
2022-08-17T15:58:58.831Z,98901.06
2022-08-17T16:02:22.366Z,98894.13
2022-08-17T16:04:29.626Z,98895.53
2022-08-17T16:07:00.428Z,98896.50
2022-08-17T16:09:30.594Z,98899.50
2022-08-17T16:12:11.550Z,98902.91
2022-08-17T16:14:41.303Z,98902.59
2022-08-17T16:17:38.667Z,98897.09
2022-08-17T16:20:00.985Z,98889.25
2022-08-17T16:22:35.602Z,98886.94
2022-08-17T16:25:08.240Z,98890.19
2022-08-17T16:27:41.029Z,98884.16
2022-08-17T16:30:17.053Z,98884.66
2022-08-17T16:32:49.077Z,98892.66
2022-08-17T16:35:18.638Z,98886.88
2022-08-17T16:37:48.296Z,98892.69
2022-08-17T16:40:19.936Z,98892.78
2022-08-17T16:42:52.766Z,98881.91
2022-08-17T16:45:24.965Z,98879.97
2022-08-17T16:47:54.989Z,98874.25
2022-08-17T16:50:26.775Z,98868.63
2022-08-17T16:53:06.579Z,98873.69
2022-08-17T16:55:37.578Z,98880.88
2022-08-17T16:58:10.165Z,98876.44
2022-08-17T17:00:42.072Z,98880.88
2022-08-17T17:03:19.997Z,98889.06
2022-08-17T17:06:01.774Z,98884.16
2022-08-17T17:08:43.622Z,98884.22
2022-08-17T17:11:18.048Z,98900.78
2022-08-17T17:13:57.922Z,98905.94
2022-08-17T17:16:36.218Z,98910.84
2022-08-17T17:19:12.697Z,98907.19
2022-08-17T17:21:49.639Z,98906.66
2022-08-17T17:24:25.274Z,98913.97
2022-08-17T17:27:13.154Z,98909.63
2022-08-17T17:29:56.826Z,98903.47
2022-08-17T17:32:34.581Z,98909.94
2022-08-17T17:35:09.656Z,98907.78
2022-08-17T17:37:42.628Z,98908.88
2022-08-17T17:40:20.492Z,98901.38
2022-08-17T17:42:55.148Z,98905.69
2022-08-17T17:45:31.955Z,98908.53
2022-08-17T17:48:01.519Z,98921.72
2022-08-17T17:50:36.068Z,98918.53
2022-08-17T17:53:11.349Z,98920.13
2022-08-17T17:55:50.630Z,98922.88
2022-08-17T17:58:35.971Z,98926.66
2022-08-17T18:01:25.173Z,98926.22
2022-08-17T18:04:14.279Z,98929.00
2022-08-17T18:07:05.739Z,98931.84
2022-08-17T18:10:01.406Z,98929.44
2022-08-17T18:12:38.736Z,98940.75
2022-08-17T18:15:25.120Z,98939.88
2022-08-17T18:18:37.959Z,98937.53
2022-08-17T18:21:15.647Z,98938.31
2022-08-17T18:23:57.901Z,98948.34
2022-08-17T18:26:45.124Z,98957.28
2022-08-17T18:29:34.435Z,98954.41
2022-08-17T18:32:46.628Z,98944.34
2022-08-17T18:35:32.872Z,98956.47
2022-08-17T18:38:22.444Z,98952.84
2022-08-17T18:41:09.641Z,98963.16
2022-08-17T18:43:53.306Z,98968.47
2022-08-17T18:46:30.166Z,98964.81
2022-08-17T18:49:02.021Z,98976.03
2022-08-17T18:51:41.760Z,98977.72
2022-08-17T18:54:22.004Z,98973.16
2022-08-17T18:56:54.961Z,98974.44
2022-08-17T18:59:31.774Z,98969.75
2022-08-17T19:02:15.341Z,98968.28
2022-08-17T19:05:01.442Z,98977.72
2022-08-17T19:07:37.702Z,98984.34
2022-08-17T19:10:19.615Z,98975.16
2022-08-17T19:12:55.124Z,98976.72
2022-08-17T19:15:37.985Z,98972.28
2022-08-17T19:18:15.868Z,98967.69
2022-08-17T19:20:50.295Z,98965.88
2022-08-17T19:23:27.832Z,98962.84
2022-08-17T19:26:01.731Z,98967.28
2022-08-17T19:28:39.443Z,98961.31
2022-08-17T19:31:16.761Z,98964.56
2022-08-17T19:33:48.025Z,98970.25
2022-08-17T19:36:32.724Z,98970.34
2022-08-17T19:39:13.493Z,98967.84
2022-08-17T19:41:52.961Z,98971.50
2022-08-17T19:44:41.497Z,98969.06
2022-08-17T19:47:43.082Z,98967.19
2022-08-17T19:50:16.665Z,98968.38
2022-08-17T19:52:55.441Z,98959.22
2022-08-17T19:55:34.234Z,98969.97
2022-08-17T19:58:10.730Z,98970.75
2022-08-17T20:00:47.802Z,98971.81
2022-08-17T20:03:22.197Z,98971.63
2022-08-17T20:06:13.418Z,98977.97
2022-08-17T20:08:49.732Z,98970.56
2022-08-17T20:11:25.722Z,98984.50
2022-08-17T20:14:01.863Z,98979.44
2022-08-17T20:16:31.958Z,98974.00
2022-08-17T20:19:05.608Z,98982.13
2022-08-17T20:21:39.886Z,98986.75
2022-08-17T20:24:21.839Z,98996.03
2022-08-17T20:26:59.665Z,99000.03
2022-08-17T20:29:39.632Z,99015.47
2022-08-17T20:32:26.248Z,99002.78
2022-08-17T20:35:20.815Z,99000.16
2022-08-17T20:38:02.512Z,99000.88
2022-08-17T20:40:35.794Z,99001.94
2022-08-17T20:43:35.559Z,99011.53
2022-08-17T20:46:20.374Z,99001.09
2022-08-17T20:48:54.484Z,99006.78
2022-08-17T20:51:32.351Z,99014.19
2022-08-17T20:54:28.227Z,99007.66
2022-08-17T20:57:00.477Z,99004.75
2022-08-17T21:00:00.309Z,98993.19
2022-08-17T21:02:32.957Z,99001.03
2022-08-17T21:05:23.006Z,98998.31
2022-08-17T21:07:59.741Z,98995.94
2022-08-17T21:10:35.733Z,98995.72
2022-08-17T21:13:34.752Z,98996.19
2022-08-17T21:16:12.903Z,99003.97
2022-08-17T21:18:53.827Z,99009.41
2022-08-17T21:21:30.191Z,99006.25
2022-08-17T21:24:20.165Z,99007.06
2022-08-17T21:27:01.858Z,98997.41
2022-08-17T21:29:40.222Z,99005.09
2022-08-17T21:32:24.255Z,99003.06
2022-08-17T21:35:32.140Z,99003.69
2022-08-17T21:38:16.650Z,98993.88
2022-08-17T21:40:50.011Z,99004.03
2022-08-17T21:43:26.059Z,99002.31
2022-08-17T21:46:03.519Z,99000.38
2022-08-17T21:48:35.100Z,99002.19
2022-08-17T21:51:12.257Z,99000.63
2022-08-17T21:53:49.058Z,99002.28
2022-08-17T21:56:26.843Z,99005.50
2022-08-17T21:59:01.281Z,99015.28
2022-08-17T22:01:34.609Z,99009.63
2022-08-17T22:04:08.716Z,99015.75
2022-08-17T22:06:55.834Z,99020.09
2022-08-17T22:09:30.082Z,99014.84
2022-08-17T22:12:05.052Z,99019.19
2022-08-17T22:14:51.821Z,99008.00
2022-08-17T22:17:26.919Z,99001.88
2022-08-17T22:19:59.109Z,99008.63
2022-08-17T22:22:55.151Z,99008.16
2022-08-17T22:25:26.888Z,99016.50
2022-08-17T22:28:00.322Z,99015.34
2022-08-17T22:30:34.743Z,99020.91
2022-08-17T22:33:24.878Z,99021.84
2022-08-17T22:36:15.376Z,99022.72
2022-08-17T22:38:45.505Z,99029.03
2022-08-17T22:41:41.224Z,99027.59
2022-08-17T22:44:18.186Z,99030.28
2022-08-17T22:46:58.817Z,99027.38
2022-08-17T22:49:32.616Z,99026.28
2022-08-17T22:52:10.427Z,99025.81
2022-08-17T22:54:52.523Z,99027.88
2022-08-17T22:57:51.861Z,99028.09
2022-08-17T23:00:37.786Z,99027.41
2022-08-17T23:03:20.235Z,99030.06
2022-08-17T23:05:51.543Z,99036.44
2022-08-17T23:08:24.280Z,99030.91
2022-08-17T23:10:53.807Z,99043.44
2022-08-17T23:13:23.501Z,99034.38
